createdAt,value
2019-04-20T00:00:46.855Z,95877.96
2019-04-20T00:03:13.893Z,95876.84
2019-04-20T00:05:43.540Z,95879.38
2019-04-20T00:08:19.447Z,95886.14
2019-04-20T00:10:53.000Z,95892.83
2019-04-20T00:13:25.509Z,95888.77
2019-04-20T00:15:47.235Z,95899.20
2019-04-20T00:18:17.045Z,95898.77
2019-04-20T00:21:04.802Z,95901.77
2019-04-20T00:23:48.643Z,95910.25
2019-04-20T00:27:04.876Z,95899.67
2019-04-20T00:29:23.929Z,95899.48
2019-04-20T00:31:48.894Z,95904.36
2019-04-20T00:34:15.672Z,95904.85
2019-04-20T00:36:39.225Z,95907.83
2019-04-20T00:39:11.482Z,95906.72
2019-04-20T00:41:46.839Z,95910.61
2019-04-20T00:44:17.262Z,95902.97
2019-04-20T00:46:56.838Z,95896.84
2019-04-20T00:49:29.300Z,95900.55
2019-04-20T00:52:15.186Z,95895.81
2019-04-20T00:54:16.035Z,95901.45
2019-04-20T00:56:45.495Z,95890.16
2019-04-20T00:59:30.193Z,95893.77
2019-04-20T01:02:03.948Z,95896.48
2019-04-20T01:04:39.223Z,95896.01
2019-04-20T01:07:24.229Z,95891.29
2019-04-20T01:10:04.700Z,95887.90
2019-04-20T01:12:36.880Z,95886.81
2019-04-20T01:15:09.922Z,95880.11
2019-04-20T01:17:41.801Z,95882.55
2019-04-20T01:20:09.290Z,95885.89
2019-04-20T01:22:44.627Z,95890.62
2019-04-20T01:25:18.350Z,95883.47
2019-04-20T01:28:02.239Z,95886.79
2019-04-20T01:30:21.057Z,95891.80
2019-04-20T01:33:00.496Z,95886.25
2019-04-20T01:35:31.805Z,95891.12
2019-04-20T01:38:09.631Z,95890.14
2019-04-20T01:40:17.541Z,95885.05
2019-04-20T01:42:47.069Z,95881.43
2019-04-20T01:45:24.758Z,95883.34
2019-04-20T01:47:52.337Z,95878.48
2019-04-20T01:50:24.659Z,95875.19
2019-04-20T01:53:03.515Z,95873.30
2019-04-20T01:55:38.600Z,95876.61
2019-04-20T01:58:35.348Z,95868.97
2019-04-20T02:01:25.982Z,95869.90
2019-04-20T02:04:11.916Z,95869.54
2019-04-20T02:06:43.436Z,95869.27
2019-04-20T02:09:15.230Z,95861.58
2019-04-20T02:11:44.712Z,95860.92
2019-04-20T02:14:13.844Z,95862.76
2019-04-20T02:16:47.995Z,95864.00
2019-04-20T02:19:30.406Z,95860.80
2019-04-20T02:22:01.519Z,95866.23
2019-04-20T02:24:17.854Z,95866.54
2019-04-20T02:26:50.078Z,95870.70
2019-04-20T02:29:40.690Z,95867.56
2019-04-20T02:32:26.481Z,95862.08
2019-04-20T02:35:16.085Z,95857.01
2019-04-20T02:40:45.081Z,95852.57
2019-04-20T02:48:00.997Z,95854.28
2019-04-20T02:50:36.487Z,95846.07
2019-04-20T02:53:20.449Z,95851.12
2019-04-20T02:55:41.818Z,95848.39
2019-04-20T02:58:09.339Z,95851.27
2019-04-20T03:00:50.407Z,95840.05
2019-04-20T03:02:53.690Z,95841.45
2019-04-20T03:05:25.447Z,95838.64
2019-04-20T03:08:05.686Z,95839.59
2019-04-20T03:10:44.666Z,95839.59
2019-04-20T03:13:08.017Z,95850.97
2019-04-20T03:15:37.633Z,95848.48
2019-04-20T03:18:08.840Z,95848.17
2019-04-20T03:20:41.762Z,95846.95
2019-04-20T03:23:26.408Z,95847.58
2019-04-20T03:26:01.262Z,95847.61
2019-04-20T03:28:45.654Z,95845.47
2019-04-20T03:34:15.129Z,95857.32
2019-04-20T03:36:39.395Z,95859.28
2019-04-20T03:38:48.283Z,95858.51
2019-04-20T03:41:13.995Z,95857.95
2019-04-20T03:43:35.216Z,95862.14
2019-04-20T03:46:10.573Z,95859.06
2019-04-20T03:48:54.729Z,95863.01
2019-04-20T03:51:35.833Z,95868.64
2019-04-20T03:54:08.645Z,95861.91
2019-04-20T03:57:01.669Z,95873.61
2019-04-20T03:59:41.307Z,95870.31
2019-04-20T04:02:55.480Z,95858.89
2019-04-20T04:05:27.434Z,95868.58
2019-04-20T04:07:50.882Z,95881.45
2019-04-20T04:10:28.291Z,95880.78
2019-04-20T04:13:21.072Z,95882.39
2019-04-20T04:15:57.505Z,95889.17
2019-04-20T04:18:29.787Z,95886.91
2019-04-20T04:21:01.397Z,95891.86
2019-04-20T04:23:40.586Z,95890.17
2019-04-20T04:26:15.023Z,95897.45
2019-04-20T04:28:45.782Z,95896.73
2019-04-20T04:31:35.043Z,95886.61
2019-04-20T04:33:55.873Z,95894.13
2019-04-20T04:36:16.616Z,95904.62
2019-04-20T04:38:56.126Z,95908.61
2019-04-20T04:41:24.294Z,95898.11
2019-04-20T04:43:54.249Z,95900.52
2019-04-20T04:46:05.844Z,95906.55
2019-04-20T04:48:40.433Z,95902.83
2019-04-20T04:51:13.630Z,95909.13
2019-04-20T04:53:50.027Z,95907.63
2019-04-20T04:56:14.130Z,95903.09
2019-04-20T04:58:40.508Z,95900.90
2019-04-20T05:01:16.606Z,95903.73
2019-04-20T05:04:02.970Z,95904.83
2019-04-20T05:06:35.562Z,95913.08
2019-04-20T05:08:58.447Z,95910.83
2019-04-20T05:11:23.962Z,95911.93
2019-04-20T05:14:00.538Z,95918.11
2019-04-20T05:16:54.593Z,95913.76
2019-04-20T05:19:19.590Z,95915.36
2019-04-20T05:22:09.727Z,95926.47
2019-04-20T05:24:42.680Z,95918.18
2019-04-20T05:27:49.590Z,95923.48
2019-04-20T05:29:59.596Z,95928.31
2019-04-20T05:32:39.701Z,95933.48
2019-04-20T05:35:23.697Z,95935.87
2019-04-20T05:40:22.254Z,95936.82
2019-04-20T05:42:59.231Z,95941.43
2019-04-20T05:45:25.119Z,95947.49
2019-04-20T05:48:01.128Z,95948.72
2019-04-20T05:50:33.157Z,95950.92
2019-04-20T05:53:07.782Z,95951.55
2019-04-20T05:55:34.520Z,95952.95
2019-04-20T05:58:11.205Z,95951.39
2019-04-20T06:00:43.569Z,95952.91
2019-04-20T06:03:09.499Z,95952.07
2019-04-20T06:05:49.303Z,95958.12
2019-04-20T06:08:18.946Z,95960.48
2019-04-20T06:10:45.179Z,95962.09
2019-04-20T06:13:17.354Z,95964.06
2019-04-20T06:16:02.531Z,95970.49
2019-04-20T06:18:49.600Z,95973.86
2019-04-20T06:21:32.551Z,95969.38
2019-04-20T06:24:26.533Z,95968.80
2019-04-20T06:27:04.985Z,95964.97
2019-04-20T06:29:23.697Z,95967.32
2019-04-20T06:31:59.223Z,95970.58
2019-04-20T06:37:18.719Z,95969.87
2019-04-20T06:44:34.298Z,95975.98
2019-04-20T06:49:51.350Z,95982.31
2019-04-20T06:52:35.328Z,95984.28
2019-04-20T06:55:05.622Z,95983.75
2019-04-20T07:00:28.712Z,95988.73
2019-04-20T07:12:48.094Z,95991.91
2019-04-20T07:15:21.372Z,95991.00
2019-04-20T07:17:58.744Z,95994.74
2019-04-20T07:20:52.615Z,95997.16
2019-04-20T07:23:22.374Z,96003.11
2019-04-20T07:25:47.377Z,95999.97
2019-04-20T07:28:26.562Z,95998.20
2019-04-20T07:30:50.258Z,96010.27
2019-04-20T07:33:30.355Z,96005.67
2019-04-20T07:35:50.774Z,96007.77
2019-04-20T07:38:34.341Z,96002.92
2019-04-20T07:41:00.021Z,96005.46
2019-04-20T07:43:32.048Z,96007.67
2019-04-20T07:46:03.043Z,96002.95
2019-04-20T07:48:31.090Z,96007.17
2019-04-20T07:50:55.502Z,96012.56
2019-04-20T07:53:32.140Z,96009.55
2019-04-20T07:56:06.732Z,96013.30
2019-04-20T07:58:28.560Z,96016.86
2019-04-20T08:01:23.727Z,96010.84
2019-04-20T08:03:56.766Z,96011.63
2019-04-20T08:06:37.096Z,96013.81
2019-04-20T08:09:15.321Z,96018.58
2019-04-20T08:11:56.172Z,96015.12
2019-04-20T08:14:25.939Z,96017.34
2019-04-20T08:19:23.452Z,96009.50
2019-04-20T08:21:52.458Z,96015.71
2019-04-20T08:24:21.570Z,96019.36
2019-04-20T08:26:45.347Z,96010.66
2019-04-20T08:29:42.729Z,96010.62
2019-04-20T08:32:27.082Z,96019.67
2019-04-20T08:34:57.933Z,96021.13
2019-04-20T08:37:28.792Z,96019.28
2019-04-20T08:40:05.462Z,96017.96
2019-04-20T08:42:29.866Z,96028.66
2019-04-20T08:45:04.174Z,96027.75
2019-04-20T08:47:37.983Z,96029.23
2019-04-20T08:50:21.031Z,96021.27
2019-04-20T08:55:19.988Z,96022.02
2019-04-20T08:57:29.266Z,96026.10
2019-04-20T09:00:01.440Z,96027.17
2019-04-20T09:02:30.431Z,96022.14
2019-04-20T09:05:04.963Z,96027.68
2019-04-20T09:07:35.090Z,96029.45
2019-04-20T09:10:31.892Z,96024.39
2019-04-20T09:12:50.638Z,96025.95
2019-04-20T09:15:05.981Z,96025.47
2019-04-20T09:17:47.194Z,96023.44
2019-04-20T09:20:16.428Z,96029.89
2019-04-20T09:23:11.651Z,96031.02
2019-04-20T09:25:56.879Z,96030.48
2019-04-20T09:28:32.851Z,96031.71
2019-04-20T09:31:30.979Z,96034.17
2019-04-20T09:34:33.687Z,96023.63
2019-04-20T09:37:27.828Z,96025.95
2019-04-20T09:40:21.204Z,96019.70
2019-04-20T09:43:02.417Z,96027.34
2019-04-20T09:45:47.614Z,96026.30
2019-04-20T09:48:19.979Z,96019.69
2019-04-20T09:51:07.899Z,96017.59
2019-04-20T09:53:31.423Z,96021.55
2019-04-20T09:56:10.383Z,96020.41
2019-04-20T09:58:32.022Z,96017.73
2019-04-20T10:01:02.057Z,96021.38
2019-04-20T10:03:21.149Z,96027.40
2019-04-20T10:05:51.612Z,96029.72
2019-04-20T10:08:21.849Z,96029.33
2019-04-20T10:10:52.925Z,96027.45
2019-04-20T10:13:22.486Z,96031.30
2019-04-20T10:15:53.169Z,96043.17
2019-04-20T10:18:23.738Z,96028.64
2019-04-20T10:20:53.900Z,96033.19
2019-04-20T10:23:24.742Z,96040.20
2019-04-20T10:25:54.446Z,96035.58
2019-04-20T10:28:23.832Z,96041.16
2019-04-20T10:30:54.645Z,96038.02
2019-04-20T10:33:24.069Z,96040.63
2019-04-20T10:35:53.954Z,96043.02
2019-04-20T10:38:34.003Z,96035.26
2019-04-20T10:41:08.205Z,96038.98
2019-04-20T10:43:32.860Z,96041.00
2019-04-20T10:46:02.801Z,96040.81
2019-04-20T10:48:41.547Z,96036.80
2019-04-20T10:51:03.415Z,96042.77
2019-04-20T10:53:32.843Z,96045.85
2019-04-20T10:56:03.459Z,96044.87
2019-04-20T10:58:33.783Z,96043.29
2019-04-20T11:01:03.938Z,96051.02
2019-04-20T11:03:34.586Z,96048.57
2019-04-20T11:06:04.819Z,96040.03
2019-04-20T11:08:34.828Z,96045.69
2019-04-20T11:11:14.029Z,96048.16
2019-04-20T11:13:35.461Z,96048.00
2019-04-20T11:16:06.351Z,96048.23
2019-04-20T11:18:35.908Z,96049.29
2019-04-20T11:21:05.403Z,96054.80
2019-04-20T11:23:36.188Z,96052.78
2019-04-20T11:26:06.328Z,96051.30
2019-04-20T11:28:35.797Z,96060.28
2019-04-20T11:31:06.019Z,96059.94
2019-04-20T11:33:36.229Z,96050.44
2019-04-20T11:36:05.670Z,96051.88
2019-04-20T11:38:35.320Z,96052.47
2019-04-20T11:41:14.463Z,96055.02
2019-04-20T11:43:35.861Z,96063.18
2019-04-20T11:46:06.780Z,96059.39
2019-04-20T11:48:37.246Z,96062.59
2019-04-20T11:51:07.578Z,96068.98
2019-04-20T11:53:38.208Z,96064.14
2019-04-20T11:56:15.911Z,96074.75
2019-04-20T11:58:39.154Z,96062.58
2019-04-20T12:01:30.208Z,96060.22
2019-04-20T12:04:04.128Z,96067.91
2019-04-20T12:06:28.905Z,96068.77
2019-04-20T12:08:58.989Z,96063.31
2019-04-20T12:11:37.104Z,96057.59
2019-04-20T12:14:00.676Z,96063.03
2019-04-20T12:16:30.038Z,96058.22
2019-04-20T12:19:00.172Z,96051.31
2019-04-20T12:21:30.722Z,96058.22
2019-04-20T12:24:00.432Z,96062.38
2019-04-20T12:26:31.018Z,96059.55
2019-04-20T12:29:01.452Z,96051.41
2019-04-20T12:31:31.495Z,96053.78
2019-04-20T12:34:02.179Z,96062.70
2019-04-20T12:36:33.100Z,96060.67
2019-04-20T12:39:03.408Z,96070.89
2019-04-20T12:41:39.766Z,96054.66
2019-04-20T12:44:04.167Z,96059.71
2019-04-20T12:46:34.040Z,96051.67
2019-04-20T12:49:03.455Z,96047.28
2019-04-20T12:51:39.839Z,96054.97
2019-04-20T12:54:04.709Z,96056.87
2019-04-20T12:56:34.871Z,96063.86
2019-04-20T12:59:05.508Z,96069.40
2019-04-20T13:01:35.488Z,96060.47
2019-04-20T13:04:07.429Z,96065.95
2019-04-20T15:57:59.653Z,96039.20
2019-04-20T16:00:29.212Z,96039.19
2019-04-20T16:03:05.528Z,96038.42
2019-04-20T16:05:39.195Z,96039.93
2019-04-20T16:08:26.136Z,96042.78
2019-04-20T16:10:55.518Z,96040.48
2019-04-20T16:26:44.132Z,96008.67
2019-04-20T16:29:13.631Z,96035.59
2019-04-20T16:31:46.368Z,96035.31
2019-04-20T16:34:15.866Z,96035.11
2019-04-20T16:36:46.365Z,96035.61
2019-04-20T16:39:16.514Z,96038.38
2019-04-20T16:41:46.494Z,96040.67
2019-04-20T16:44:17.429Z,96036.33
2019-04-20T16:46:48.076Z,96038.80
2019-04-20T16:49:19.127Z,96035.20
2019-04-20T16:51:49.350Z,96036.86
2019-04-20T16:54:19.558Z,96037.73
2019-04-20T16:56:49.067Z,96037.69
2019-04-20T16:59:19.608Z,96038.05
2019-04-20T17:01:50.638Z,96039.28
2019-04-20T17:04:22.562Z,96041.33
2019-04-20T17:07:10.181Z,96044.89
2019-04-20T17:09:39.918Z,96039.95
2019-04-20T17:12:10.041Z,96042.54
2019-04-20T17:14:39.935Z,96040.97
2019-04-20T17:17:09.601Z,96050.85
2019-04-20T17:19:39.910Z,96054.22
2019-04-20T17:22:09.804Z,96054.80
2019-04-20T17:24:39.960Z,96061.70
2019-04-20T17:27:19.140Z,96064.92
2019-04-20T17:30:17.806Z,96070.02
2019-04-20T17:32:45.470Z,96075.37
2019-04-20T17:35:27.679Z,96073.96
2019-04-20T17:37:49.525Z,96074.31
2019-04-20T17:40:36.782Z,96073.56
2019-04-20T17:43:01.752Z,96077.52
2019-04-20T17:45:36.395Z,96081.80
2019-04-20T17:48:08.947Z,96084.51
2019-04-20T17:50:41.507Z,96085.77
2019-04-20T17:53:06.099Z,96087.83
2019-04-20T17:55:37.749Z,96083.45
2019-04-20T17:58:05.769Z,96082.81
2019-04-20T18:01:13.671Z,96088.73
2019-04-20T18:04:13.939Z,96094.06
2019-04-20T18:06:27.782Z,96089.19
2019-04-20T18:08:56.425Z,96094.38
2019-04-20T18:11:16.781Z,96091.88
2019-04-20T18:13:44.967Z,96096.19
2019-04-20T18:16:41.917Z,96096.19
2019-04-20T18:19:21.950Z,96103.75
2019-04-20T18:21:56.004Z,96101.79
2019-04-20T18:24:49.284Z,96106.77
2019-04-20T18:27:17.401Z,96114.64
2019-04-20T18:29:45.616Z,96113.00
2019-04-20T18:32:31.461Z,96108.63
2019-04-20T18:35:14.105Z,96116.08
2019-04-20T18:37:51.335Z,96114.88
2019-04-20T18:40:26.926Z,96114.88
2019-04-20T18:42:57.151Z,96114.91
2019-04-20T18:45:33.750Z,96113.36
2019-04-20T18:48:06.589Z,96114.41
2019-04-20T18:50:27.735Z,96106.06
2019-04-20T18:52:51.764Z,96124.53
2019-04-20T18:55:30.439Z,96124.53
2019-04-20T18:57:53.022Z,96127.30
2019-04-20T19:00:29.735Z,96127.30
2019-04-20T19:02:57.767Z,96131.56
2019-04-20T19:05:26.078Z,96129.20
2019-04-20T19:07:59.864Z,96129.20
2019-04-20T19:10:31.550Z,96129.44
2019-04-20T19:13:06.673Z,96127.39
2019-04-20T19:16:03.702Z,96131.42
2019-04-20T19:19:04.177Z,96127.19
2019-04-20T19:21:23.289Z,96130.17
2019-04-20T19:23:59.960Z,96129.94
2019-04-20T19:26:25.609Z,96129.94
2019-04-20T19:28:58.333Z,96124.72
2019-04-20T19:31:42.525Z,96126.27
2019-04-20T19:34:16.725Z,96128.44
2019-04-20T19:36:36.942Z,96122.83
2019-04-20T19:39:15.249Z,96130.64
2019-04-20T19:41:40.657Z,96120.96
2019-04-20T19:44:13.122Z,96129.72
2019-04-20T19:47:00.920Z,96129.72
2019-04-20T19:49:19.709Z,96119.56
2019-04-20T19:52:02.893Z,96130.23
2019-04-20T19:54:30.151Z,96123.13
2019-04-20T19:56:54.288Z,96122.64
2019-04-20T19:59:21.627Z,96119.59
2019-04-20T20:01:42.029Z,96127.16
2019-04-20T20:04:11.984Z,96122.64
2019-04-20T20:06:47.732Z,96127.64
2019-04-20T20:09:17.862Z,96123.64
2019-04-20T20:11:48.517Z,96118.48
2019-04-20T20:14:31.977Z,96121.56
2019-04-20T20:17:13.820Z,96119.44
2019-04-20T20:19:37.159Z,96119.44
2019-04-20T20:22:05.598Z,96120.44
2019-04-20T20:24:23.285Z,96123.66
2019-04-20T20:27:00.478Z,96124.31
2019-04-20T20:29:32.667Z,96117.88
2019-04-20T20:32:05.164Z,96113.39
2019-04-20T20:34:33.309Z,96118.70
2019-04-20T20:37:03.558Z,96125.31
2019-04-20T20:39:32.595Z,96129.81
2019-04-20T20:42:13.085Z,96126.60
2019-04-20T20:44:41.167Z,96124.03
2019-04-20T20:47:30.074Z,96127.39
2019-04-20T20:50:01.421Z,96123.72
2019-04-20T20:52:21.981Z,96122.41
2019-04-20T20:54:49.495Z,96119.20
2019-04-20T20:57:14.880Z,96117.27
2019-04-20T20:59:49.454Z,96115.02
2019-04-20T21:02:18.052Z,96122.89
2019-04-20T21:04:41.749Z,96120.47
2019-04-20T21:07:11.170Z,96118.55
2019-04-20T21:09:41.781Z,96118.89
2019-04-20T21:12:15.982Z,96113.08
2019-04-20T21:14:43.691Z,96122.75
2019-04-20T21:17:18.394Z,96121.47
2019-04-20T21:20:02.913Z,96123.08
2019-04-20T21:22:33.615Z,96122.40
2019-04-20T21:24:51.470Z,96122.58
2019-04-20T21:27:22.201Z,96120.80
2019-04-20T21:29:56.074Z,96114.37
2019-04-20T21:32:23.843Z,96117.56
2019-04-20T21:35:00.334Z,96110.48
2019-04-20T21:37:27.052Z,96113.88
2019-04-20T21:39:59.819Z,96113.72
2019-04-20T21:42:28.603Z,96111.14
2019-04-20T21:45:09.456Z,96117.26
2019-04-20T21:47:33.839Z,96104.72
2019-04-20T21:50:18.739Z,96104.70
2019-04-20T21:52:40.819Z,96107.43
2019-04-20T21:55:03.830Z,96111.78
2019-04-20T21:57:42.067Z,96110.45
2019-04-20T22:00:10.236Z,96112.41
2019-04-20T22:02:44.708Z,96110.47
2019-04-20T22:05:09.524Z,96113.03
2019-04-20T22:07:39.105Z,96114.98
2019-04-20T22:10:13.991Z,96110.16
2019-04-20T22:12:47.631Z,96114.00
2019-04-20T22:15:19.857Z,96113.33
2019-04-20T22:17:42.743Z,96112.69
2019-04-20T22:20:23.229Z,96118.34
2019-04-20T22:23:01.026Z,96112.42
2019-04-20T22:25:32.931Z,96109.83
2019-04-20T22:27:46.357Z,96102.72
2019-04-20T22:30:15.758Z,96101.41
2019-04-20T22:32:49.570Z,96105.25
2019-04-20T22:35:18.836Z,96101.15
2019-04-20T22:37:59.819Z,96095.02
2019-04-20T22:40:31.047Z,96097.73
2019-04-20T22:43:00.123Z,96089.51
2019-04-20T22:45:27.663Z,96086.75
2019-04-20T22:48:01.318Z,96081.61
2019-04-20T22:50:43.825Z,96078.05
2019-04-20T22:53:17.888Z,96082.75
2019-04-20T22:55:54.825Z,96082.45
2019-04-20T22:58:22.519Z,96085.17
2019-04-20T23:00:42.132Z,96086.02
2019-04-20T23:03:05.003Z,96086.78
2019-04-20T23:05:34.591Z,96082.75
2019-04-20T23:08:04.566Z,96082.89
2019-04-20T23:10:39.101Z,96088.33
2019-04-20T23:13:05.370Z,96081.24
2019-04-20T23:15:34.687Z,96081.28
2019-04-20T23:18:04.312Z,96078.89
2019-04-20T23:20:36.155Z,96080.47
2019-04-20T23:23:05.228Z,96077.05
2019-04-20T23:25:35.244Z,96073.05
2019-04-20T23:28:12.368Z,96078.19
2019-04-20T23:30:39.455Z,96073.20
2019-04-20T23:33:09.663Z,96068.67
2019-04-20T23:35:46.187Z,96057.73
2019-04-20T23:38:14.355Z,96059.79
2019-04-20T23:40:41.768Z,96064.38
2019-04-20T23:43:23.410Z,96061.14
2019-04-20T23:46:15.163Z,96053.28
2019-04-20T23:48:45.107Z,96061.18
2019-04-20T23:51:36.843Z,96053.05
2019-04-20T23:53:55.553Z,96053.05
2019-04-20T23:56:20.207Z,96046.95
2019-04-20T23:58:51.830Z,96040.57
